<?xml version="1.0" encoding="UTF-8" standalone="no" ?>
<gpx xmlns="http://www.topografix.com/GPX/1/1" xmlns:xsi="http://www.w3.org/2001/XMLSchema-instance" xsi:schemaLocation="http://www.topografix.com/GPX/1/1 http://www.topografix.com/GPX/1/1/gpx.xsd" version="1.1" creator="VisuGPX - https://www.visugpx.com">
  <metadata>
    <name>CSJC La Romieu - Condom</name>
    <desc><![CDATA[Chemin de Saint Jacques de Compostelle du Puy
Etape : La Romieu - Condom]]></desc>
  </metadata>
  <trk>
    <name><![CDATA[ACTIVE LOG145414]]></name>
    <trkseg>
      <trkpt lat="43.95487" lon="0.37383">
        <ele>99</ele>
        <time>2014-06-23T12:54:14Z</time>
      </trkpt>
      <trkpt lat="43.95488" lon="0.37388">
        <ele>99</ele>
        <time>2014-06-23T12:54:19Z</time>
      </trkpt>
      <trkpt lat="43.95485" lon="0.37387">
        <ele>99</ele>
        <time>2014-06-23T12:54:30Z</time>
      </trkpt>
      <trkpt lat="43.9549" lon="0.37378">
        <ele>99</ele>
        <time>2014-06-23T12:54:47Z</time>
      </trkpt>
      <trkpt lat="43.95489" lon="0.37378">
        <ele>99</ele>
        <time>2014-06-23T12:54:50Z</time>
      </trkpt>
      <trkpt lat="43.95487" lon="0.37392">
        <ele>99</ele>
        <time>2014-06-23T12:55:03Z</time>
      </trkpt>
      <trkpt lat="43.95488" lon="0.37391">
        <ele>99</ele>
        <time>2014-06-23T12:55:18Z</time>
      </trkpt>
      <trkpt lat="43.95487" lon="0.37389">
        <ele>99</ele>
        <time>2014-06-23T12:55:22Z</time>
      </trkpt>
      <trkpt lat="43.9549" lon="0.37387">
        <ele>99</ele>
        <time>2014-06-23T12:55:23Z</time>
      </trkpt>
      <trkpt lat="43.95493" lon="0.37387">
        <ele>99</ele>
        <time>2014-06-23T12:55:24Z</time>
      </trkpt>
      <trkpt lat="43.95494" lon="0.37386">
        <ele>99</ele>
        <time>2014-06-23T12:55:25Z</time>
      </trkpt>
      <trkpt lat="43.95502" lon="0.37394">
        <ele>97</ele>
        <time>2014-06-23T12:55:37Z</time>
      </trkpt>
      <trkpt lat="43.95495" lon="0.37396">
        <ele>99</ele>
        <time>2014-06-23T12:55:55Z</time>
      </trkpt>
      <trkpt lat="43.95483" lon="0.37403">
        <ele>99</ele>
        <time>2014-06-23T12:56:14Z</time>
      </trkpt>
      <trkpt lat="43.95482" lon="0.37403">
        <ele>99</ele>
        <time>2014-06-23T12:56:15Z</time>
      </trkpt>
      <trkpt lat="43.95481" lon="0.37401">
        <ele>99</ele>
        <time>2014-06-23T12:56:18Z</time>
      </trkpt>
      <trkpt lat="43.95485" lon="0.37399">
        <ele>99</ele>
        <time>2014-06-23T12:56:24Z</time>
      </trkpt>
      <trkpt lat="43.95483" lon="0.37388">
        <ele>99</ele>
        <time>2014-06-23T12:56:37Z</time>
      </trkpt>
      <trkpt lat="43.95488" lon="0.37388">
        <ele>99</ele>
        <time>2014-06-23T12:56:43Z</time>
      </trkpt>
      <trkpt lat="43.95493" lon="0.37388">
        <ele>99</ele>
        <time>2014-06-23T12:56:45Z</time>
      </trkpt>
      <trkpt lat="43.95496" lon="0.37387">
        <ele>99</ele>
        <time>2014-06-23T12:56:47Z</time>
      </trkpt>
      <trkpt lat="43.95501" lon="0.37396">
        <ele>97</ele>
        <time>2014-06-23T12:56:59Z</time>
      </trkpt>
      <trkpt lat="43.95501" lon="0.37398">
        <ele>97</ele>
        <time>2014-06-23T12:57:08Z</time>
      </trkpt>
      <trkpt lat="43.95499" lon="0.37397">
        <ele>98</ele>
        <time>2014-06-23T12:57:10Z</time>
      </trkpt>
      <trkpt lat="43.95498" lon="0.37396">
        <ele>99</ele>
        <time>2014-06-23T12:57:11Z</time>
      </trkpt>
      <trkpt lat="43.955" lon="0.374">
        <ele>98</ele>
        <time>2014-06-23T12:57:23Z</time>
      </trkpt>
      <trkpt lat="43.95504" lon="0.37401">
        <ele>97</ele>
        <time>2014-06-23T12:57:28Z</time>
      </trkpt>
      <trkpt lat="43.95488" lon="0.37399">
        <ele>99</ele>
        <time>2014-06-23T12:57:30Z</time>
      </trkpt>
      <trkpt lat="43.95473" lon="0.37392">
        <ele>99</ele>
        <time>2014-06-23T12:57:33Z</time>
      </trkpt>
      <trkpt lat="43.95484" lon="0.37398">
        <ele>99</ele>
        <time>2014-06-23T12:57:37Z</time>
      </trkpt>
      <trkpt lat="43.95486" lon="0.37394">
        <ele>99</ele>
        <time>2014-06-23T12:57:39Z</time>
      </trkpt>
      <trkpt lat="43.95482" lon="0.37385">
        <ele>99</ele>
        <time>2014-06-23T12:57:49Z</time>
      </trkpt>
      <trkpt lat="43.9548" lon="0.37375">
        <ele>99</ele>
        <time>2014-06-23T12:58:03Z</time>
      </trkpt>
      <trkpt lat="43.95481" lon="0.37373">
        <ele>99</ele>
        <time>2014-06-23T12:58:11Z</time>
      </trkpt>
      <trkpt lat="43.95481" lon="0.37373">
        <ele>99</ele>
        <time>2014-06-23T12:58:12Z</time>
      </trkpt>
      <trkpt lat="43.95478" lon="0.37372">
        <ele>100</ele>
        <time>2014-06-23T12:58:30Z</time>
      </trkpt>
      <trkpt lat="43.95478" lon="0.37371">
        <ele>100</ele>
        <time>2014-06-23T12:58:37Z</time>
      </trkpt>
      <trkpt lat="43.95479" lon="0.37372">
        <ele>100</ele>
        <time>2014-06-23T12:58:38Z</time>
      </trkpt>
      <trkpt lat="43.95479" lon="0.37372">
        <ele>100</ele>
        <time>2014-06-23T12:58:39Z</time>
      </trkpt>
      <trkpt lat="43.95478" lon="0.37371">
        <ele>100</ele>
        <time>2014-06-23T12:58:42Z</time>
      </trkpt>
      <trkpt lat="43.95478" lon="0.37377">
        <ele>99</ele>
        <time>2014-06-23T12:59:24Z</time>
      </trkpt>
      <trkpt lat="43.95475" lon="0.3738">
        <ele>99</ele>
        <time>2014-06-23T12:59:36Z</time>
      </trkpt>
      <trkpt lat="43.95491" lon="0.37381">
        <ele>99</ele>
        <time>2014-06-23T12:59:54Z</time>
      </trkpt>
      <trkpt lat="43.95493" lon="0.37385">
        <ele>99</ele>
        <time>2014-06-23T13:00:00Z</time>
      </trkpt>
      <trkpt lat="43.95494" lon="0.37382">
        <ele>99</ele>
        <time>2014-06-23T13:00:05Z</time>
      </trkpt>
      <trkpt lat="43.95502" lon="0.3739">
        <ele>97</ele>
        <time>2014-06-23T13:00:16Z</time>
      </trkpt>
      <trkpt lat="43.95502" lon="0.37395">
        <ele>97</ele>
        <time>2014-06-23T13:00:28Z</time>
      </trkpt>
      <trkpt lat="43.95495" lon="0.37389">
        <ele>99</ele>
        <time>2014-06-23T13:00:51Z</time>
      </trkpt>
      <trkpt lat="43.95496" lon="0.37382">
        <ele>99</ele>
        <time>2014-06-23T13:01:03Z</time>
      </trkpt>
      <trkpt lat="43.95489" lon="0.3738">
        <ele>99</ele>
        <time>2014-06-23T13:01:19Z</time>
      </trkpt>
      <trkpt lat="43.95489" lon="0.37387">
        <ele>99</ele>
        <time>2014-06-23T13:01:37Z</time>
      </trkpt>
      <trkpt lat="43.95489" lon="0.37385">
        <ele>99</ele>
        <time>2014-06-23T13:01:53Z</time>
      </trkpt>
      <trkpt lat="43.95493" lon="0.37396">
        <ele>99</ele>
        <time>2014-06-23T13:02:11Z</time>
      </trkpt>
      <trkpt lat="43.95495" lon="0.37395">
        <ele>99</ele>
        <time>2014-06-23T13:02:24Z</time>
      </trkpt>
      <trkpt lat="43.95496" lon="0.37393">
        <ele>99</ele>
        <time>2014-06-23T13:02:26Z</time>
      </trkpt>
      <trkpt lat="43.95498" lon="0.374">
        <ele>98</ele>
        <time>2014-06-23T13:02:43Z</time>
      </trkpt>
      <trkpt lat="43.95498" lon="0.37401">
        <ele>98</ele>
        <time>2014-06-23T13:02:55Z</time>
      </trkpt>
      <trkpt lat="43.95498" lon="0.37408">
        <ele>98</ele>
        <time>2014-06-23T13:02:57Z</time>
      </trkpt>
      <trkpt lat="43.95499" lon="0.37407">
        <ele>98</ele>
        <time>2014-06-23T13:03:11Z</time>
      </trkpt>
      <trkpt lat="43.95493" lon="0.37398">
        <ele>98</ele>
        <time>2014-06-23T13:03:24Z</time>
      </trkpt>
      <trkpt lat="43.95491" lon="0.37387">
        <ele>99</ele>
        <time>2014-06-23T13:03:40Z</time>
      </trkpt>
      <trkpt lat="43.95489" lon="0.37382">
        <ele>99</ele>
        <time>2014-06-23T13:03:54Z</time>
      </trkpt>
      <trkpt lat="43.9549" lon="0.37377">
        <ele>99</ele>
        <time>2014-06-23T13:04:58Z</time>
      </trkpt>
      <trkpt lat="43.95483" lon="0.37378">
        <ele>99</ele>
        <time>2014-06-23T13:06:02Z</time>
      </trkpt>
      <trkpt lat="43.95485" lon="0.37385">
        <ele>99</ele>
        <time>2014-06-23T13:07:13Z</time>
      </trkpt>
      <trkpt lat="43.95492" lon="0.3738">
        <ele>99</ele>
        <time>2014-06-23T13:07:32Z</time>
      </trkpt>
      <trkpt lat="43.95494" lon="0.37378">
        <ele>99</ele>
        <time>2014-06-23T13:07:52Z</time>
      </trkpt>
      <trkpt lat="43.95493" lon="0.37379">
        <ele>99</ele>
        <time>2014-06-23T13:08:07Z</time>
      </trkpt>
      <trkpt lat="43.95486" lon="0.37381">
        <ele>99</ele>
        <time>2014-06-23T13:08:42Z</time>
      </trkpt>
      <trkpt lat="43.95484" lon="0.37377">
        <ele>99</ele>
        <time>2014-06-23T13:09:02Z</time>
      </trkpt>
      <trkpt lat="43.95481" lon="0.37377">
        <ele>99</ele>
        <time>2014-06-23T13:09:43Z</time>
      </trkpt>
      <trkpt lat="43.95484" lon="0.37374">
        <ele>99</ele>
        <time>2014-06-23T13:10:14Z</time>
      </trkpt>
      <trkpt lat="43.95489" lon="0.37374">
        <ele>99</ele>
        <time>2014-06-23T13:10:36Z</time>
      </trkpt>
      <trkpt lat="43.95487" lon="0.37373">
        <ele>99</ele>
        <time>2014-06-23T13:11:19Z</time>
      </trkpt>
      <trkpt lat="43.95492" lon="0.37374">
        <ele>99</ele>
        <time>2014-06-23T13:12:02Z</time>
      </trkpt>
      <trkpt lat="43.9549" lon="0.37374">
        <ele>99</ele>
        <time>2014-06-23T13:12:33Z</time>
      </trkpt>
      <trkpt lat="43.9549" lon="0.3737">
        <ele>99</ele>
        <time>2014-06-23T13:13:07Z</time>
      </trkpt>
      <trkpt lat="43.95484" lon="0.37378">
        <ele>99</ele>
        <time>2014-06-23T13:13:39Z</time>
      </trkpt>
      <trkpt lat="43.95486" lon="0.37379">
        <ele>99</ele>
        <time>2014-06-23T13:14:22Z</time>
      </trkpt>
      <trkpt lat="43.95479" lon="0.37384">
        <ele>99</ele>
        <time>2014-06-23T13:14:55Z</time>
      </trkpt>
      <trkpt lat="43.95477" lon="0.37384">
        <ele>99</ele>
        <time>2014-06-23T13:15:30Z</time>
      </trkpt>
      <trkpt lat="43.95482" lon="0.37376">
        <ele>99</ele>
        <time>2014-06-23T13:16:02Z</time>
      </trkpt>
      <trkpt lat="43.95478" lon="0.37374">
        <ele>99</ele>
        <time>2014-06-23T13:16:27Z</time>
      </trkpt>
      <trkpt lat="43.95478" lon="0.37381">
        <ele>99</ele>
        <time>2014-06-23T13:16:51Z</time>
      </trkpt>
      <trkpt lat="43.95484" lon="0.3738">
        <ele>99</ele>
        <time>2014-06-23T13:17:23Z</time>
      </trkpt>
      <trkpt lat="43.95485" lon="0.3738">
        <ele>99</ele>
        <time>2014-06-23T13:17:47Z</time>
      </trkpt>
      <trkpt lat="43.95485" lon="0.37381">
        <ele>99</ele>
        <time>2014-06-23T13:18:12Z</time>
      </trkpt>
      <trkpt lat="43.95482" lon="0.37385">
        <ele>99</ele>
        <time>2014-06-23T13:19:17Z</time>
      </trkpt>
      <trkpt lat="43.95483" lon="0.37371">
        <ele>100</ele>
        <time>2014-06-23T13:20:41Z</time>
      </trkpt>
      <trkpt lat="43.95482" lon="0.37381">
        <ele>99</ele>
        <time>2014-06-23T13:21:41Z</time>
      </trkpt>
      <trkpt lat="43.95482" lon="0.37381">
        <ele>99</ele>
        <time>2014-06-23T13:22:00Z</time>
      </trkpt>
      <trkpt lat="43.95482" lon="0.37379">
        <ele>99</ele>
        <time>2014-06-23T13:22:29Z</time>
      </trkpt>
      <trkpt lat="43.95482" lon="0.37376">
        <ele>99</ele>
        <time>2014-06-23T13:23:00Z</time>
      </trkpt>
      <trkpt lat="43.95483" lon="0.37383">
        <ele>99</ele>
        <time>2014-06-23T13:23:23Z</time>
      </trkpt>
      <trkpt lat="43.95481" lon="0.37377">
        <ele>99</ele>
        <time>2014-06-23T13:24:18Z</time>
      </trkpt>
      <trkpt lat="43.95481" lon="0.37379">
        <ele>99</ele>
        <time>2014-06-23T13:24:45Z</time>
      </trkpt>
      <trkpt lat="43.95483" lon="0.37383">
        <ele>99</ele>
        <time>2014-06-23T13:25:52Z</time>
      </trkpt>
      <trkpt lat="43.95483" lon="0.3738">
        <ele>99</ele>
        <time>2014-06-23T13:27:26Z</time>
      </trkpt>
      <trkpt lat="43.95485" lon="0.3738">
        <ele>99</ele>
        <time>2014-06-23T13:27:55Z</time>
      </trkpt>
      <trkpt lat="43.95486" lon="0.37378">
        <ele>99</ele>
        <time>2014-06-23T13:28:33Z</time>
      </trkpt>
      <trkpt lat="43.95492" lon="0.37371">
        <ele>99</ele>
        <time>2014-06-23T13:30:29Z</time>
      </trkpt>
      <trkpt lat="43.95484" lon="0.37374">
        <ele>99</ele>
        <time>2014-06-23T13:31:08Z</time>
      </trkpt>
      <trkpt lat="43.95488" lon="0.37372">
        <ele>99</ele>
        <time>2014-06-23T13:31:30Z</time>
      </trkpt>
      <trkpt lat="43.95488" lon="0.37371">
        <ele>99</ele>
        <time>2014-06-23T13:31:57Z</time>
      </trkpt>
      <trkpt lat="43.95488" lon="0.37367">
        <ele>100</ele>
        <time>2014-06-23T13:32:20Z</time>
      </trkpt>
      <trkpt lat="43.95476" lon="0.37378">
        <ele>99</ele>
        <time>2014-06-23T13:32:51Z</time>
      </trkpt>
      <trkpt lat="43.95477" lon="0.37374">
        <ele>100</ele>
        <time>2014-06-23T13:33:57Z</time>
      </trkpt>
      <trkpt lat="43.95478" lon="0.37376">
        <ele>99</ele>
        <time>2014-06-23T13:34:28Z</time>
      </trkpt>
      <trkpt lat="43.95478" lon="0.37381">
        <ele>99</ele>
        <time>2014-06-23T13:35:17Z</time>
      </trkpt>
      <trkpt lat="43.95479" lon="0.37381">
        <ele>99</ele>
        <time>2014-06-23T13:35:53Z</time>
      </trkpt>
      <trkpt lat="43.9549" lon="0.37376">
        <ele>99</ele>
        <time>2014-06-23T13:36:17Z</time>
      </trkpt>
      <trkpt lat="43.95479" lon="0.37379">
        <ele>99</ele>
        <time>2014-06-23T13:37:20Z</time>
      </trkpt>
      <trkpt lat="43.95482" lon="0.3738">
        <ele>99</ele>
        <time>2014-06-23T13:37:51Z</time>
      </trkpt>
      <trkpt lat="43.95487" lon="0.37378">
        <ele>99</ele>
        <time>2014-06-23T13:38:43Z</time>
      </trkpt>
      <trkpt lat="43.95483" lon="0.37382">
        <ele>99</ele>
        <time>2014-06-23T13:39:20Z</time>
      </trkpt>
      <trkpt lat="43.95491" lon="0.37376">
        <ele>99</ele>
        <time>2014-06-23T13:39:39Z</time>
      </trkpt>
      <trkpt lat="43.95484" lon="0.37382">
        <ele>99</ele>
        <time>2014-06-23T13:40:13Z</time>
      </trkpt>
      <trkpt lat="43.95481" lon="0.3738">
        <ele>99</ele>
        <time>2014-06-23T13:40:40Z</time>
      </trkpt>
      <trkpt lat="43.95471" lon="0.3739">
        <ele>99</ele>
        <time>2014-06-23T13:41:51Z</time>
      </trkpt>
      <trkpt lat="43.95479" lon="0.37378">
        <ele>99</ele>
        <time>2014-06-23T13:42:21Z</time>
      </trkpt>
      <trkpt lat="43.95482" lon="0.37377">
        <ele>99</ele>
        <time>2014-06-23T13:42:56Z</time>
      </trkpt>
      <trkpt lat="43.95482" lon="0.37377">
        <ele>99</ele>
        <time>2014-06-23T13:44:01Z</time>
      </trkpt>
      <trkpt lat="43.95481" lon="0.37376">
        <ele>99</ele>
        <time>2014-06-23T13:44:33Z</time>
      </trkpt>
      <trkpt lat="43.95486" lon="0.37374">
        <ele>99</ele>
        <time>2014-06-23T13:45:13Z</time>
      </trkpt>
      <trkpt lat="43.95486" lon="0.37373">
        <ele>99</ele>
        <time>2014-06-23T13:46:11Z</time>
      </trkpt>
      <trkpt lat="43.95484" lon="0.37372">
        <ele>99</ele>
        <time>2014-06-23T13:46:34Z</time>
      </trkpt>
      <trkpt lat="43.95485" lon="0.37382">
        <ele>99</ele>
        <time>2014-06-23T13:47:13Z</time>
      </trkpt>
      <trkpt lat="43.95483" lon="0.37379">
        <ele>99</ele>
        <time>2014-06-23T13:48:10Z</time>
      </trkpt>
      <trkpt lat="43.95479" lon="0.3737">
        <ele>100</ele>
        <time>2014-06-23T13:50:37Z</time>
      </trkpt>
      <trkpt lat="43.95481" lon="0.37378">
        <ele>99</ele>
        <time>2014-06-23T13:51:23Z</time>
      </trkpt>
      <trkpt lat="43.95474" lon="0.37387">
        <ele>99</ele>
        <time>2014-06-23T13:51:53Z</time>
      </trkpt>
      <trkpt lat="43.95479" lon="0.37384">
        <ele>99</ele>
        <time>2014-06-23T13:52:28Z</time>
      </trkpt>
      <trkpt lat="43.95479" lon="0.37381">
        <ele>99</ele>
        <time>2014-06-23T13:52:42Z</time>
      </trkpt>
      <trkpt lat="43.95477" lon="0.37383">
        <ele>99</ele>
        <time>2014-06-23T13:52:44Z</time>
      </trkpt>
      <trkpt lat="43.95474" lon="0.37387">
        <ele>99</ele>
        <time>2014-06-23T13:52:55Z</time>
      </trkpt>
      <trkpt lat="43.95486" lon="0.37376">
        <ele>99</ele>
        <time>2014-06-23T13:53:26Z</time>
      </trkpt>
      <trkpt lat="43.95479" lon="0.37381">
        <ele>99</ele>
        <time>2014-06-23T13:54:40Z</time>
      </trkpt>
      <trkpt lat="43.95481" lon="0.37382">
        <ele>99</ele>
        <time>2014-06-23T13:55:06Z</time>
      </trkpt>
      <trkpt lat="43.95489" lon="0.37381">
        <ele>99</ele>
        <time>2014-06-23T13:55:34Z</time>
      </trkpt>
      <trkpt lat="43.95479" lon="0.37387">
        <ele>99</ele>
        <time>2014-06-23T13:55:59Z</time>
      </trkpt>
      <trkpt lat="43.9548" lon="0.3738">
        <ele>99</ele>
        <time>2014-06-23T13:57:14Z</time>
      </trkpt>
      <trkpt lat="43.95494" lon="0.37375">
        <ele>99</ele>
        <time>2014-06-23T13:57:42Z</time>
      </trkpt>
      <trkpt lat="43.95496" lon="0.37377">
        <ele>99</ele>
        <time>2014-06-23T13:58:08Z</time>
      </trkpt>
      <trkpt lat="43.95488" lon="0.37377">
        <ele>99</ele>
        <time>2014-06-23T13:59:08Z</time>
      </trkpt>
      <trkpt lat="43.95499" lon="0.37366">
        <ele>99</ele>
        <time>2014-06-23T13:59:35Z</time>
      </trkpt>
      <trkpt lat="43.95481" lon="0.3738">
        <ele>99</ele>
        <time>2014-06-23T14:00:34Z</time>
      </trkpt>
      <trkpt lat="43.9548" lon="0.37381">
        <ele>99</ele>
        <time>2014-06-23T14:00:57Z</time>
      </trkpt>
      <trkpt lat="43.9548" lon="0.37382">
        <ele>99</ele>
        <time>2014-06-23T14:01:29Z</time>
      </trkpt>
      <trkpt lat="43.95486" lon="0.37382">
        <ele>99</ele>
        <time>2014-06-23T14:02:29Z</time>
      </trkpt>
      <trkpt lat="43.95489" lon="0.37384">
        <ele>99</ele>
        <time>2014-06-23T14:03:46Z</time>
      </trkpt>
    </trkseg>
  </trk>
</gpx>